Time;durP1;ratioP1;P1;durP2;ratioP2;P2;SDS_P1;SDS_P2;PMS_P1;PMS_P2;Temp;Humidity;BMP_temperature;BMP_pressure;BME280_temperature;BME280_humidity;BME280_pressure;Samples;Min_cycle;Max_cycle;Signal;HPM_P1;HPM_P2
2021/12/01 00:01:11;;;;;;;1.00;0.50;;;;;;;4.46;85.44;98305.34;5016802;28;20219;-54
2021/12/01 00:03:40;;;;;;;1.53;0.90;;;;;;;4.48;85.65;98285.38;5016315;28;20193;-53
2021/12/01 00:06:08;;;;;;;1.07;0.70;;;;;;;4.52;84.98;98291.13;5017427;28;20188;-55
2021/12/01 00:08:35;;;;;;;0.80;0.53;;;;;;;4.55;83.96;98289.13;5026542;28;20564;-56
2021/12/01 00:11:03;;;;;;;1.87;0.80;;;;;;;4.55;85.59;98291.69;5036766;28;20220;-57
2021/12/01 00:13:33;;;;;;;0.77;0.50;;;;;;;4.59;84.09;98276.78;5019022;28;20208;-54
2021/12/01 00:16:03;;;;;;;0.70;0.50;;;;;;;4.62;83.99;98266.19;5016802;28;20206;-57
2021/12/01 00:18:30;;;;;;;1.17;0.70;;;;;;;4.64;84.20;98255.72;5016512;28;20219;-55
2021/12/01 00:20:58;;;;;;;1.00;0.53;;;;;;;4.60;84.44;98237.06;5017193;28;20303;-56
2021/12/01 00:23:25;;;;;;;2.17;0.70;;;;;;;4.60;85.99;98241.41;5013897;28;20198;-57
2021/12/01 00:25:53;;;;;;;1.67;0.70;;;;;;;4.61;84.40;98235.28;5014914;28;20419;-56
2021/12/01 00:28:20;;;;;;;0.70;0.60;;;;;;;4.61;84.95;98238.72;5012869;28;20254;-56
2021/12/01 00:30:48;;;;;;;3.73;0.73;;;;;;;4.60;85.39;98231.91;5015917;28;20224;-56
2021/12/01 00:33:22;;;;;;;1.57;0.50;;;;;;;4.69;83.72;98238.09;5017022;28;20188;-53
2021/12/01 00:35:51;;;;;;;1.47;0.67;;;;;;;4.73;83.94;98219.63;5028601;23;20225;-52
2021/12/01 00:38:18;;;;;;;1.03;0.87;;;;;;;4.71;83.72;98210.34;4978027;28;20544;-53
2021/12/01 00:40:45;;;;;;;1.63;0.60;;;;;;;4.72;83.64;98217.16;4994834;28;20588;-50
2021/12/01 00:43:17;;;;;;;0.63;0.60;;;;;;;4.70;83.72;98206.94;4992983;28;20201;-50
2021/12/01 00:45:49;;;;;;;0.60;0.60;;;;;;;4.71;83.47;98200.84;4998863;28;20205;-53
2021/12/01 00:48:17;;;;;;;1.00;0.70;;;;;;;4.73;83.13;98213.63;5004753;28;20247;-51
2021/12/01 00:50:45;;;;;;;2.00;0.53;;;;;;;4.75;82.37;98198.81;4997494;28;20194;-52
2021/12/01 00:53:12;;;;;;;1.10;0.70;;;;;;;4.75;82.23;98203.97;4993007;28;20188;-53
2021/12/01 00:55:40;;;;;;;1.27;0.80;;;;;;;4.75;82.77;98193.63;5003430;28;20572;-49
2021/12/01 00:58:07;;;;;;;1.20;0.80;;;;;;;4.75;81.86;98198.00;4978031;28;20274;-51
2021/12/01 01:00:36;;;;;;;1.13;0.80;;;;;;;4.68;83.78;98193.31;4993690;28;20247;-51
2021/12/01 01:03:03;;;;;;;0.90;0.73;;;;;;;4.71;82.54;98198.25;5005714;28;20291;-51
2021/12/01 01:05:31;;;;;;;3.27;1.10;;;;;;;4.69;82.66;98196.72;5014543;28;20653;-48
2021/12/01 01:07:58;;;;;;;3.47;0.80;;;;;;;4.67;82.98;98185.69;5014553;28;20195;-50
2021/12/01 01:10:35;;;;;;;3.17;0.80;;;;;;;4.73;81.65;98188.59;5013405;28;20188;-53
2021/12/01 01:18:38;;;;;;;1.10;0.90;;;;;;;4.69;82.28;98174.28;5005314;28;20201;-51
2021/12/01 01:21:07;;;;;;;1.07;0.77;;;;;;;4.72;82.11;98155.94;5013896;28;20322;-53
2021/12/01 01:23:34;;;;;;;1.13;0.73;;;;;;;4.69;83.01;98161.34;5000219;28;20614;-49
2021/12/01 01:26:04;;;;;;;1.03;0.60;;;;;;;4.71;82.98;98150.88;4973687;28;20214;-51
2021/12/01 01:28:31;;;;;;;3.77;0.70;;;;;;;4.72;81.58;98163.69;4993290;28;20550;-53
2021/12/01 01:30:59;;;;;;;2.10;0.67;;;;;;;4.78;81.12;98158.94;4986749;28;20551;-50
2021/12/01 01:33:27;;;;;;;2.50;0.70;;;;;;;4.78;82.10;98153.75;4993994;28;20618;-49
2021/12/01 01:35:54;;;;;;;1.33;0.80;;;;;;;4.73;82.01;98152.41;4999365;28;20693;-50
2021/12/01 01:38:22;;;;;;;1.00;0.70;;;;;;;4.74;82.04;98153.22;4994088;28;20269;-49
2021/12/01 01:40:49;;;;;;;1.17;0.70;;;;;;;4.71;81.69;98163.81;4993420;28;20202;-51
2021/12/01 01:43:16;;;;;;;2.70;1.10;;;;;;;4.71;82.21;98148.28;4993652;28;20193;-51
2021/12/01 01:45:43;;;;;;;0.73;0.73;;;;;;;4.72;81.78;98135.25;4990847;28;20196;-51
2021/12/01 01:48:11;;;;;;;1.70;1.00;;;;;;;4.72;82.75;98129.25;4986954;28;20535;-51
2021/12/01 01:50:40;;;;;;;2.03;0.80;;;;;;;4.70;83.20;98134.56;4996791;28;20232;-50
2021/12/01 01:53:11;;;;;;;1.53;0.80;;;;;;;4.78;81.81;98118.41;4995706;28;20191;-50
2021/12/01 01:55:43;;;;;;;1.07;0.83;;;;;;;4.79;82.80;98124.38;4993337;28;20281;-54
2021/12/01 01:58:11;;;;;;;1.40;0.90;;;;;;;4.85;81.85;98116.13;4992191;28;20217;-53
2021/12/01 02:00:44;;;;;;;1.63;1.00;;;;;;;4.87;81.34;98104.72;4992422;28;20281;-50
2021/12/01 02:03:12;;;;;;;2.60;0.77;;;;;;;4.90;82.00;98105.41;4986778;28;20272;-48
2021/12/01 02:05:39;;;;;;;1.80;1.00;;;;;;;4.87;81.46;98093.53;4989230;28;20494;-49
2021/12/01 02:08:14;;;;;;;1.23;0.70;;;;;;;4.93;81.94;98080.09;4999413;28;20679;-54
2021/12/01 02:10:43;;;;;;;4.30;0.73;;;;;;;4.93;82.70;98107.72;4991690;28;20248;-51
2021/12/01 02:13:10;;;;;;;2.90;0.90;;;;;;;4.99;80.64;98094.28;4992162;28;20276;-53
2021/12/01 02:15:37;;;;;;;1.40;1.03;;;;;;;4.94;81.97;98086.09;4993237;28;20235;-51
2021/12/01 02:18:04;;;;;;;1.43;1.00;;;;;;;4.93;82.28;98097.38;4993538;28;20531;-50
2021/12/01 02:20:32;;;;;;;1.30;1.00;;;;;;;4.94;81.52;98080.94;4981791;28;20277;-52
2021/12/01 02:23:00;;;;;;;1.30;0.90;;;;;;;4.92;82.32;98073.28;5003427;28;20214;-50
2021/12/01 02:25:28;;;;;;;1.60;1.00;;;;;;;4.90;82.88;98075.16;5004730;28;20267;-52
2021/12/01 02:27:55;;;;;;;2.53;1.10;;;;;;;4.92;81.98;98068.09;5012871;28;20198;-55
2021/12/01 02:30:23;;;;;;;1.87;1.10;;;;;;;4.97;80.77;98062.56;4994571;28;20201;-52
2021/12/01 02:32:50;;;;;;;1.20;0.70;;;;;;;4.98;81.47;98038.34;5013054;28;20649;-53
2021/12/01 02:35:17;;;;;;;1.33;0.93;;;;;;;5.01;81.25;98045.84;5003656;28;20259;-53
2021/12/01 02:37:45;;;;;;;0.87;0.73;;;;;;;4.96;82.78;98066.91;4989039;28;20320;-50
2021/12/01 02:40:13;;;;;;;2.63;0.90;;;;;;;4.96;82.37;98048.00;5001626;28;20680;-50
2021/12/01 02:42:40;;;;;;;2.03;0.97;;;;;;;5.00;82.01;98070.06;5009123;28;20192;-51
2021/12/01 02:45:08;;;;;;;1.40;0.90;;;;;;;4.97;82.60;98052.22;5012669;28;20219;-53
2021/12/01 02:47:35;;;;;;;1.63;1.10;;;;;;;4.95;81.75;98036.81;5012631;28;20292;-51
2021/12/01 02:50:01;;;;;;;1.93;1.20;;;;;;;4.89;83.37;98024.41;5011907;28;20276;-52
2021/12/01 02:52:34;;;;;;;2.30;1.30;;;;;;;4.88;82.15;98010.66;4995517;28;20190;-53
2021/12/01 02:55:04;;;;;;;3.13;1.20;;;;;;;4.86;83.42;98022.91;5003489;28;20736;-49
2021/12/01 02:57:41;;;;;;;2.20;1.33;;;;;;;4.95;82.11;97997.22;5007635;28;20216;-53
2021/12/01 03:00:09;;;;;;;3.43;1.30;;;;;;;4.96;82.64;97986.72;5011723;28;20269;-53
2021/12/01 03:02:36;;;;;;;1.80;1.00;;;;;;;4.99;83.15;97990.84;5012429;28;20185;-53
2021/12/01 03:05:03;;;;;;;2.90;0.97;;;;;;;4.95;83.84;97981.69;5012339;28;20191;-51
2021/12/01 03:07:32;;;;;;;2.13;1.17;;;;;;;4.99;83.61;97972.72;4996780;28;20212;-52
2021/12/01 03:09:59;;;;;;;1.40;0.90;;;;;;;4.99;84.18;97965.78;5002359;28;20275;-49
2021/12/01 03:12:29;;;;;;;2.97;1.07;;;;;;;5.06;84.31;97963.50;5006751;28;20227;-53
2021/12/01 03:14:56;;;;;;;1.30;0.80;;;;;;;5.13;84.01;97995.66;5012029;28;20279;-51
2021/12/01 03:17:23;;;;;;;2.33;0.93;;;;;;;5.25;83.21;97991.16;5012022;28;20668;-49
2021/12/01 03:19:49;;;;;;;2.50;0.80;;;;;;;5.32;83.72;97975.91;5007226;28;20279;-51
2021/12/01 03:22:16;;;;;;;1.07;0.80;;;;;;;5.35;83.02;97974.84;4979123;28;20232;-53
2021/12/01 03:24:43;;;;;;;1.20;0.90;;;;;;;5.39;83.26;97983.97;4979201;28;20201;-52
2021/12/01 03:27:10;;;;;;;2.60;0.90;;;;;;;5.40;83.61;97968.31;5000526;28;20242;-50
2021/12/01 03:29:38;;;;;;;2.03;0.97;;;;;;;5.40;83.01;97967.50;5007218;28;20207;-51
2021/12/01 03:32:07;;;;;;;1.37;0.93;;;;;;;5.42;83.21;97973.38;5011888;28;20208;-54
2021/12/01 03:34:35;;;;;;;1.40;0.90;;;;;;;5.39;83.65;97971.84;5012212;28;20215;-51
2021/12/01 03:37:02;;;;;;;1.60;0.90;;;;;;;5.40;83.34;97970.91;4986718;28;20331;-50
2021/12/01 03:39:29;;;;;;;4.00;0.80;;;;;;;5.38;83.61;97966.81;5000704;28;20271;-50
2021/12/01 03:41:56;;;;;;;1.83;0.80;;;;;;;5.41;82.88;97976.91;5003706;28;20226;-49
2021/12/01 03:44:23;;;;;;;1.43;0.80;;;;;;;5.39;83.27;97947.75;5011624;28;20280;-52
2021/12/01 03:46:51;;;;;;;0.97;0.70;;;;;;;5.30;83.12;97960.53;5011623;28;20215;-52
2021/12/01 03:49:18;;;;;;;4.13;0.90;;;;;;;5.30;83.27;97945.00;5010815;28;20223;-49
2021/12/01 03:51:45;;;;;;;1.00;0.77;;;;;;;5.31;82.82;97914.75;5001426;28;20818;-51
2021/12/01 03:54:12;;;;;;;1.73;0.60;;;;;;;5.31;83.40;97928.53;5000409;28;20189;-49
2021/12/01 03:56:39;;;;;;;1.00;0.67;;;;;;;5.31;83.08;97915.59;5003615;28;20208;-51
2021/12/01 03:59:06;;;;;;;0.87;0.63;;;;;;;5.36;82.86;97919.53;5011038;28;20195;-49
2021/12/01 04:01:34;;;;;;;1.27;0.73;;;;;;;5.34;82.54;97911.91;5011625;28;20283;-52
2021/12/01 04:04:02;;;;;;;0.50;0.50;;;;;;;5.38;82.73;97900.31;4991882;28;20291;-49
2021/12/01 04:06:29;;;;;;;0.67;0.50;;;;;;;5.43;82.19;97902.53;4995390;28;20597;-51
2021/12/01 04:08:56;;;;;;;0.57;0.40;;;;;;;5.56;81.29;97886.72;4987441;28;20597;-50
2021/12/01 04:11:23;;;;;;;0.80;0.57;;;;;;;5.63;80.64;97879.22;4993810;28;20204;-50
2021/12/01 04:13:51;;;;;;;0.70;0.40;;;;;;;5.73;80.02;97872.28;4989721;28;20201;-49
2021/12/01 04:16:18;;;;;;;3.90;0.57;;;;;;;5.66;80.45;97869.41;4990172;28;20252;-51
2021/12/01 04:18:44;;;;;;;1.07;0.30;;;;;;;5.73;79.97;97854.94;4993415;28;20280;-52
2021/12/01 04:21:13;;;;;;;1.20;0.80;;;;;;;5.80;78.83;97838.84;4997446;28;20594;-54
2021/12/01 04:23:40;;;;;;;0.30;0.20;;;;;;;5.79;79.82;97855.34;4993990;28;20197;-49
2021/12/01 04:26:11;;;;;;;0.30;0.30;;;;;;;5.82;80.05;97835.19;5001844;28;20269;-50
2021/12/01 04:28:38;;;;;;;0.80;0.40;;;;;;;5.82;79.63;97834.34;5000239;28;20653;-54
2021/12/01 04:31:05;;;;;;;0.40;0.40;;;;;;;5.87;79.20;97826.97;5002910;28;20650;-52
2021/12/01 04:33:32;;;;;;;0.77;0.33;;;;;;;5.84;79.46;97824.66;4998628;28;20653;-55
2021/12/01 04:35:59;;;;;;;0.40;0.30;;;;;;;5.85;79.20;97814.16;4993440;28;20296;-54
2021/12/01 04:38:27;;;;;;;1.53;0.30;;;;;;;5.85;78.82;97808.97;4994581;28;20198;-49
2021/12/01 04:40:54;;;;;;;0.80;0.47;;;;;;;5.88;78.53;97794.94;5001360;28;20193;-51
2021/12/01 04:43:21;;;;;;;1.03;0.30;;;;;;;5.87;78.72;97801.88;5001052;28;20228;-49
2021/12/01 04:45:53;;;;;;;1.27;0.40;;;;;;;5.88;78.49;97792.34;4997700;28;20213;-53
2021/12/01 04:48:20;;;;;;;1.83;0.40;;;;;;;5.88;78.01;97772.44;4994941;28;20606;-53
2021/12/01 04:50:47;;;;;;;0.30;0.30;;;;;;;5.88;78.12;97780.19;4999689;28;20276;-55
2021/12/01 04:53:14;;;;;;;0.33;0.20;;;;;;;5.91;77.65;97773.94;4990306;28;20284;-53
2021/12/01 04:55:43;;;;;;;0.30;0.30;;;;;;;5.95;77.29;97788.22;4992145;28;20300;-54
2021/12/01 04:58:10;;;;;;;0.33;0.30;;;;;;;5.99;77.43;97773.22;4997106;28;20189;-55
2021/12/01 05:00:39;;;;;;;0.40;0.30;;;;;;;6.03;76.29;97759.88;4995748;28;20221;-53
2021/12/01 05:03:06;;;;;;;0.50;0.37;;;;;;;6.05;76.49;97750.19;4994312;28;20468;-56
2021/12/01 05:05:33;;;;;;;1.00;0.40;;;;;;;6.09;76.78;97770.63;5007102;28;20200;-55
2021/12/01 05:08:00;;;;;;;0.43;0.30;;;;;;;6.02;77.15;97760.84;4996931;28;20836;-54
2021/12/01 05:10:26;;;;;;;1.93;0.47;;;;;;;6.00;77.15;97780.88;4992195;28;20199;-54
2021/12/01 05:12:54;;;;;;;0.30;0.30;;;;;;;5.99;77.64;97766.28;4992773;28;20273;-54
2021/12/01 05:15:23;;;;;;;0.40;0.40;;;;;;;6.04;77.12;97773.63;5003533;28;20629;-55
2021/12/01 05:17:50;;;;;;;0.97;0.40;;;;;;;5.95;78.36;97751.97;5000873;28;20226;-55
2021/12/01 05:20:17;;;;;;;0.43;0.30;;;;;;;5.88;78.63;97749.13;5007736;28;20685;-56
2021/12/01 05:22:44;;;;;;;1.47;0.43;;;;;;;5.94;78.01;97741.75;4994793;28;20219;-57
2021/12/01 05:25:11;;;;;;;50.03;17.67;;;;;;;5.84;79.43;97731.44;4999161;28;20201;-57
2021/12/01 05:27:39;;;;;;;9.20;3.90;;;;;;;5.80;80.02;97733.50;4999934;28;20720;-54
2021/12/01 05:30:07;;;;;;;1.07;0.60;;;;;;;5.82;79.50;97720.41;5004885;28;20280;-55
2021/12/01 05:32:34;;;;;;;0.50;0.40;;;;;;;5.87;78.77;97708.63;4997461;28;20189;-55
2021/12/01 05:35:02;;;;;;;2.40;0.50;;;;;;;5.95;78.43;97710.53;5000835;28;20662;-56
2021/12/01 05:37:29;;;;;;;0.93;0.47;;;;;;;5.94;78.04;97683.00;4996306;28;20616;-57
2021/12/01 05:39:56;;;;;;;1.17;0.30;;;;;;;6.01;78.15;97691.84;4992853;28;20213;-56
2021/12/01 05:42:22;;;;;;;1.90;0.50;;;;;;;6.07;77.04;97684.47;5002455;28;20215;-57
2021/12/01 05:44:49;;;;;;;1.07;0.30;;;;;;;6.14;77.15;97663.00;4992186;28;20642;-54
2021/12/01 05:47:18;;;;;;;1.63;0.30;;;;;;;6.14;76.60;97678.53;4998952;28;20232;-55
2021/12/01 05:49:45;;;;;;;1.13;0.50;;;;;;;6.12;77.34;97649.38;5006112;28;20649;-54
2021/12/01 05:52:13;;;;;;;1.60;1.00;;;;;;;6.14;76.57;97652.63;4991670;28;20235;-53
2021/12/01 05:54:40;;;;;;;1.40;0.40;;;;;;;6.15;75.74;97643.09;4998384;28;20225;-56
2021/12/01 05:57:07;;;;;;;4.67;2.13;;;;;;;6.20;75.61;97652.03;4993723;28;20244;-54
2021/12/01 05:59:34;;;;;;;1.93;0.50;;;;;;;6.26;75.36;97666.19;4990415;28;20218;-54
2021/12/01 06:02:01;;;;;;;1.47;1.00;;;;;;;6.23;75.88;97671.69;4994895;28;20217;-54
2021/12/01 06:04:29;;;;;;;1.13;0.50;;;;;;;6.29;74.64;97660.72;5000497;28;20184;-53
2021/12/01 06:06:56;;;;;;;2.30;0.57;;;;;;;6.28;74.96;97663.44;5003032;28;20296;-54
2021/12/01 06:09:23;;;;;;;1.13;0.33;;;;;;;6.33;73.91;97650.84;4990822;28;20201;-53
2021/12/01 06:11:52;;;;;;;0.73;0.40;;;;;;;6.36;74.15;97635.00;4998240;28;20189;-56
2021/12/01 06:14:19;;;;;;;58.60;25.60;;;;;;;6.45;73.17;97623.75;5003238;28;20754;-55
2021/12/01 06:16:46;;;;;;;11.30;7.03;;;;;;;6.45;73.33;97631.53;5000368;28;20717;-56
2021/12/01 06:19:13;;;;;;;1.93;1.73;;;;;;;6.50;72.75;97625.88;4995580;28;20193;-55
2021/12/01 06:21:42;;;;;;;8.43;7.17;;;;;;;6.48;72.80;97627.81;4998132;28;20287;-54
2021/12/01 06:24:08;;;;;;;10.47;7.33;;;;;;;6.55;72.68;97617.69;4996256;28;20208;-56
2021/12/01 06:26:35;;;;;;;9.37;6.53;;;;;;;6.54;72.56;97616.84;4992984;28;20245;-56
2021/12/01 06:29:02;;;;;;;64.80;42.03;;;;;;;6.56;72.30;97621.91;4984850;28;20198;-55
2021/12/01 06:31:29;;;;;;;5.20;4.10;;;;;;;6.64;72.04;97607.19;4993549;28;20197;-53
2021/12/01 06:33:58;;;;;;;9.43;7.97;;;;;;;6.71;71.16;97586.69;5002236;28;20276;-55
2021/12/01 06:36:25;;;;;;;6.83;5.90;;;;;;;6.73;71.11;97587.34;4999872;28;20298;-55
2021/12/01 06:38:53;;;;;;;6.13;5.40;;;;;;;6.71;71.95;97580.66;4995099;28;20207;-56
2021/12/01 06:41:20;;;;;;;2.70;1.00;;;;;;;6.70;71.05;97594.59;4993470;28;20213;-56
2021/12/01 06:43:47;;;;;;;2.13;1.60;;;;;;;6.74;71.32;97595.94;4996463;28;20200;-53
2021/12/01 06:46:14;;;;;;;1.97;0.67;;;;;;;6.79;71.75;97565.16;5000111;28;20292;-56
2021/12/01 06:48:40;;;;;;;1.40;0.30;;;;;;;6.84;71.11;97567.31;4999984;28;20203;-53
2021/12/01 06:51:07;;;;;;;0.93;0.30;;;;;;;6.79;71.52;97549.59;4991537;28;20200;-54
2021/12/01 06:53:34;;;;;;;2.20;0.47;;;;;;;6.83;70.31;97553.50;4983868;28;20200;-53
2021/12/01 06:56:03;;;;;;;1.50;0.30;;;;;;;6.82;71.17;97544.09;4994728;28;20908;-55
2021/12/01 06:58:30;;;;;;;1.20;0.43;;;;;;;6.78;70.81;97541.03;4999311;28;20193;-55
2021/12/01 07:00:57;;;;;;;0.73;0.57;;;;;;;6.79;71.40;97542.66;4998661;28;20225;-55
2021/12/01 07:03:23;;;;;;;0.37;0.30;;;;;;;6.76;71.68;97539.53;5004618;28;20212;-55
2021/12/01 07:05:50;;;;;;;0.20;0.20;;;;;;;6.77;71.28;97517.81;4994909;28;20307;-55
2021/12/01 07:08:17;;;;;;;0.77;0.20;;;;;;;6.78;72.21;97520.28;4992406;28;20280;-56
2021/12/01 07:10:44;;;;;;;1.17;0.30;;;;;;;6.84;71.67;97494.69;4995045;28;20765;-54
2021/12/01 07:13:12;;;;;;;0.47;0.30;;;;;;;6.88;71.35;97514.16;4994028;28;20185;-55
2021/12/01 07:15:38;;;;;;;0.97;0.20;;;;;;;6.91;71.31;97500.84;4994844;28;20197;-55
2021/12/01 07:20:51;;;;;;;0.73;0.40;;;;;;;6.92;72.62;97494.69;5558558;23;20772;-55
2021/12/01 07:23:18;;;;;;;0.30;0.30;;;;;;;6.95;72.76;97494.38;4990167;28;20213;-54
2021/12/01 07:25:45;;;;;;;0.30;0.23;;;;;;;7.05;72.73;97495.06;4981618;28;20229;-56
2021/12/01 07:28:13;;;;;;;0.47;0.20;;;;;;;7.12;73.04;97490.09;4995480;28;20219;-53
2021/12/01 07:30:40;;;;;;;0.73;0.20;;;;;;;7.20;72.07;97489.28;4986984;28;20943;-57
2021/12/01 07:33:07;;;;;;;0.50;0.20;;;;;;;7.21;72.97;97483.97;4986222;28;20197;-55
2021/12/01 07:35:34;;;;;;;0.27;0.20;;;;;;;7.19;73.51;97469.50;4980929;28;20765;-54
2021/12/01 07:38:01;;;;;;;0.40;0.23;;;;;;;7.26;73.40;97464.50;4990389;28;20212;-52
2021/12/01 07:40:27;;;;;;;4.73;0.50;;;;;;;7.14;74.44;97461.38;4989465;28;20217;-51
2021/12/01 07:42:54;;;;;;;1.17;0.77;;;;;;;7.13;74.17;97450.19;4987616;28;20605;-51
2021/12/01 07:45:22;;;;;;;1.00;0.73;;;;;;;7.15;74.97;97458.63;4985429;28;20684;-50
2021/12/01 07:47:49;;;;;;;0.40;0.30;;;;;;;7.19;74.27;97440.94;4990143;28;20240;-53
2021/12/01 07:50:16;;;;;;;0.27;0.20;;;;;;;7.14;75.00;97438.84;4991635;28;20601;-50
2021/12/01 07:52:43;;;;;;;1.67;0.80;;;;;;;7.17;74.75;97456.69;4991800;28;20186;-54
2021/12/01 07:55:10;;;;;;;0.30;0.30;;;;;;;7.19;75.46;97451.34;4990746;28;20197;-51
2021/12/01 07:57:37;;;;;;;0.33;0.30;;;;;;;7.28;74.24;97440.00;4986304;28;20220;-51
2021/12/01 08:00:06;;;;;;;0.63;0.60;;;;;;;7.25;74.39;97453.28;4985016;28;20243;-51
2021/12/01 08:02:35;;;;;;;0.83;0.53;;;;;;;7.26;75.81;97443.75;4979145;28;20939;-49
2021/12/01 08:05:02;;;;;;;1.60;0.53;;;;;;;7.21;76.69;97452.81;4993351;28;20252;-49
2021/12/01 08:07:33;;;;;;;0.30;0.20;;;;;;;7.25;77.27;97448.09;4995909;28;20721;-54
2021/12/01 08:10:00;;;;;;;0.47;0.20;;;;;;;7.27;74.95;97434.97;4993473;28;20193;-49
2021/12/01 08:12:27;;;;;;;0.60;0.30;;;;;;;7.30;75.49;97427.69;4999291;28;20238;-51
2021/12/01 08:14:54;;;;;;;0.87;0.30;;;;;;;7.42;74.78;97430.75;5006109;28;20227;-54
2021/12/01 08:17:21;;;;;;;0.30;0.20;;;;;;;7.45;74.17;97416.66;5013822;28;20608;-50
2021/12/01 08:19:49;;;;;;;0.57;0.40;;;;;;;7.65;73.41;97417.97;5014993;28;20728;-49
2021/12/01 08:22:15;;;;;;;1.53;0.20;;;;;;;7.66;72.07;97400.59;5015277;28;20625;-54
2021/12/01 08:24:42;;;;;;;0.63;0.40;;;;;;;7.61;72.72;97418.44;5015377;28;20246;-49
2021/12/01 08:27:09;;;;;;;0.87;0.47;;;;;;;7.64;72.98;97393.00;5015258;28;20212;-48
2021/12/01 08:29:36;;;;;;;0.27;0.20;;;;;;;7.74;72.88;97392.81;5014504;28;20284;-51
2021/12/01 08:32:04;;;;;;;0.60;0.30;;;;;;;7.72;73.08;97391.38;5015220;28;20296;-48
2021/12/01 08:34:30;;;;;;;2.17;0.20;;;;;;;7.83;71.70;97399.63;4997658;28;20185;-48
2021/12/01 08:36:59;;;;;;;0.60;0.30;;;;;;;7.87;71.43;97368.94;5014917;28;20220;-49
2021/12/01 08:39:25;;;;;;;0.40;0.27;;;;;;;7.87;71.32;97368.94;5015356;28;20188;-49
2021/12/01 08:41:52;;;;;;;1.03;0.20;;;;;;;7.87;71.77;97368.13;5010911;28;20220;-53
2021/12/01 08:44:19;;;;;;;0.40;0.20;;;;;;;7.94;70.74;97369.09;4978111;28;20263;-52
2021/12/01 08:46:46;;;;;;;0.47;0.13;;;;;;;7.78;72.67;97365.53;4995562;28;20642;-49
2021/12/01 08:49:13;;;;;;;0.10;0.10;;;;;;;7.82;71.01;97366.03;4995310;28;20186;-52
2021/12/01 08:51:40;;;;;;;2.87;0.20;;;;;;;7.92;70.86;97358.03;4994868;28;20611;-50
2021/12/01 08:54:13;;;;;;;0.10;0.10;;;;;;;7.95;71.66;97353.31;4995034;28;20658;-52
2021/12/01 08:56:40;;;;;;;2.93;0.30;;;;;;;7.94;70.59;97338.72;4995422;28;20205;-51
2021/12/01 08:59:07;;;;;;;0.33;0.20;;;;;;;7.86;71.79;97345.72;4995283;28;20256;-51
2021/12/01 09:01:34;;;;;;;0.53;0.30;;;;;;;7.85;71.80;97354.50;4994507;28;20245;-50
2021/12/01 09:04:01;;;;;;;0.30;0.20;;;;;;;7.96;71.99;97354.16;4990004;28;20316;-50
2021/12/01 09:06:28;;;;;;;0.20;0.10;;;;;;;7.89;71.15;97314.22;4995169;28;20684;-50
2021/12/01 09:08:55;;;;;;;2.23;0.20;;;;;;;7.94;70.85;97327.50;4995011;28;20702;-50
2021/12/01 09:11:23;;;;;;;1.23;0.60;;;;;;;8.06;71.22;97323.59;4994457;28;20778;-49
2021/12/01 09:13:50;;;;;;;1.83;1.40;;;;;;;8.13;70.36;97334.13;4994198;28;20246;-50
2021/12/01 09:16:17;;;;;;;2.77;0.30;;;;;;;8.05;70.46;97310.75;4994954;28;20182;-52
2021/12/01 09:18:44;;;;;;;0.73;0.20;;;;;;;8.03;71.24;97333.50;4993953;28;20221;-50
2021/12/01 09:21:11;;;;;;;0.20;0.20;;;;;;;8.08;69.48;97295.66;4990544;28;20218;-50
2021/12/01 09:23:37;;;;;;;0.77;0.10;;;;;;;8.51;70.70;97317.91;5004469;28;20255;-54
2021/12/01 09:26:04;;;;;;;0.90;0.30;;;;;;;8.59;69.11;97307.47;5009100;28;20654;-59
2021/12/01 09:28:32;;;;;;;0.20;0.20;;;;;;;8.67;67.51;97315.22;4979773;28;20198;-54
2021/12/01 09:30:59;;;;;;;0.20;0.10;;;;;;;8.26;68.64;97310.22;4986489;28;20206;-53
2021/12/01 09:33:27;;;;;;;0.30;0.30;;;;;;;8.11;70.03;97297.09;5008718;28;20189;-53
2021/12/01 09:35:54;;;;;;;0.80;0.20;;;;;;;8.07;70.14;97332.19;4996613;28;20184;-51
2021/12/01 09:38:21;;;;;;;0.30;0.10;;;;;;;8.04;70.26;97307.34;5005908;28;20185;-52
2021/12/01 09:40:51;;;;;;;0.10;0.10;;;;;;;8.04;71.27;97302.16;4992072;28;20220;-54
2021/12/01 09:43:21;;;;;;;0.50;0.30;;;;;;;8.04;69.91;97299.56;4992600;28;20205;-51
2021/12/01 09:45:50;;;;;;;0.33;0.20;;;;;;;8.03;70.32;97271.13;4980412;28;20568;-52
2021/12/01 09:48:17;;;;;;;0.20;0.20;;;;;;;8.03;70.26;97271.94;5005506;28;20195;-55
2021/12/01 09:50:44;;;;;;;1.23;0.50;;;;;;;8.05;70.65;97282.97;5003894;28;20226;-52
2021/12/01 09:53:10;;;;;;;2.33;0.77;;;;;;;8.00;70.51;97284.44;5012091;28;20210;-53
2021/12/01 09:55:37;;;;;;;0.70;0.37;;;;;;;8.05;71.21;97261.38;5011899;28;20195;-57
2021/12/01 09:58:09;;;;;;;1.60;0.20;;;;;;;8.04;69.78;97257.16;5010818;28;20751;-51
2021/12/01 10:00:37;;;;;;;1.23;1.13;;;;;;;8.07;70.48;97255.03;5003475;28;20220;-52
2021/12/01 10:03:06;;;;;;;1.13;0.70;;;;;;;8.09;70.33;97263.47;4979971;28;20212;-57
2021/12/01 10:06:02;;;;;;;1.27;1.00;;;;;;;8.04;70.23;97233.75;4985201;28;20196;-53
2021/12/01 10:08:30;;;;;;;0.27;0.20;;;;;;;8.06;70.83;97247.41;4993192;28;20197;-50
2021/12/01 10:10:58;;;;;;;0.40;0.20;;;;;;;8.04;70.78;97252.78;4991186;28;20208;-52
2021/12/01 10:13:28;;;;;;;1.50;0.40;;;;;;;8.12;70.49;97216.34;4992381;28;20752;-56
2021/12/01 10:15:57;;;;;;;0.37;0.17;;;;;;;8.13;70.11;97217.97;4992683;28;20598;-54
2021/12/01 10:18:26;;;;;;;0.10;0.10;;;;;;;8.09;69.88;97231.47;4982304;28;20272;-53
2021/12/01 10:21:06;;;;;;;0.63;0.10;;;;;;;8.11;70.11;97214.75;5003062;28;20216;-52
2021/12/01 10:23:34;;;;;;;0.20;0.20;;;;;;;8.11;70.91;97221.72;5002282;28;20213;-51
2021/12/01 10:26:10;;;;;;;0.20;0.10;;;;;;;8.06;72.63;97200.63;4992054;28;20209;-51
2021/12/01 10:28:39;;;;;;;0.23;0.10;;;;;;;8.04;72.63;97187.00;4991185;28;20197;-51
2021/12/01 10:31:06;;;;;;;0.70;0.10;;;;;;;8.09;71.92;97182.09;4991755;28;20223;-53
2021/12/01 10:33:34;;;;;;;0.60;0.20;;;;;;;8.02;74.03;97194.97;4988273;28;20297;-51
2021/12/01 10:36:04;;;;;;;0.43;0.30;;;;;;;7.94;76.45;97185.44;5000534;28;20213;-50
2021/12/01 10:38:35;;;;;;;0.33;0.20;;;;;;;7.92;75.84;97186.56;5006798;28;20624;-51
2021/12/01 10:41:04;;;;;;;0.30;0.20;;;;;;;7.82;77.14;97182.38;4991217;28;20694;-54
2021/12/01 10:43:46;;;;;;;0.37;0.23;;;;;;;7.80;76.60;97179.16;4992734;28;20213;-51
2021/12/01 10:46:15;;;;;;;1.50;0.30;;;;;;;7.88;77.57;97177.50;4992357;28;20191;-52
2021/12/01 10:48:46;;;;;;;0.23;0.20;;;;;;;7.80;77.05;97168.75;4992096;28;20936;-51
2021/12/01 10:51:31;;;;;;;0.30;0.20;;;;;;;7.77;78.82;97157.91;4980034;28;20302;-52
2021/12/01 10:54:00;;;;;;;0.30;0.30;;;;;;;7.76;78.54;97156.28;4992372;28;20541;-54
2021/12/01 10:56:27;;;;;;;0.20;0.20;;;;;;;7.79;78.83;97148.16;5002098;28;20676;-51
2021/12/01 10:58:53;;;;;;;0.30;0.20;;;;;;;7.72;80.21;97127.22;4990015;28;20196;-53
2021/12/01 11:01:22;;;;;;;2.70;0.20;;;;;;;7.79;78.95;97128.16;4991156;28;20213;-55
2021/12/01 11:03:51;;;;;;;0.60;0.43;;;;;;;7.76;79.70;97125.91;4991623;28;20270;-51
2021/12/01 11:06:20;;;;;;;0.20;0.20;;;;;;;7.85;79.35;97142.28;4984986;28;20198;-52
2021/12/01 11:08:49;;;;;;;0.50;0.23;;;;;;;7.85;78.91;97116.31;4989394;28;20193;-51
2021/12/01 11:11:18;;;;;;;1.40;0.20;;;;;;;7.89;78.56;97104.59;4998956;28;20705;-51
2021/12/01 11:13:48;;;;;;;0.80;0.30;;;;;;;7.93;78.59;97108.47;4972588;28;20178;-55
2021/12/01 11:16:17;;;;;;;0.53;0.30;;;;;;;7.90;78.78;97097.59;4972370;28;20194;-54
2021/12/01 11:18:47;;;;;;;0.60;0.50;;;;;;;8.03;77.51;97113.44;4971788;28;20192;-53
2021/12/01 11:21:17;;;;;;;1.33;0.17;;;;;;;8.12;76.90;97101.19;4979225;28;20235;-51
2021/12/01 11:23:46;;;;;;;0.80;0.30;;;;;;;8.15;76.56;97089.66;4987520;28;20643;-53
2021/12/01 11:26:15;;;;;;;2.03;0.30;;;;;;;8.13;77.73;97088.03;4999133;28;20217;-57
2021/12/01 11:28:44;;;;;;;0.47;0.20;;;;;;;8.09;77.26;97076.34;4978203;28;20201;-51
2021/12/01 11:31:15;;;;;;;0.40;0.20;;;;;;;8.13;77.71;97075.03;4989957;28;20247;-54
2021/12/01 11:33:44;;;;;;;0.27;0.20;;;;;;;8.20;78.01;97050.94;4991399;28;20268;-54
2021/12/01 11:36:13;;;;;;;6.30;2.63;;;;;;;8.18;78.21;97058.13;4973681;28;20602;-53
2021/12/01 11:38:42;;;;;;;1.07;0.77;;;;;;;8.18;78.15;97064.09;4988541;28;20193;-55
2021/12/01 11:41:10;;;;;;;0.30;0.20;;;;;;;8.17;77.23;97036.50;4998558;28;20205;-50
2021/12/01 11:43:39;;;;;;;1.60;0.30;;;;;;;8.22;77.68;97039.38;5010366;28;20295;-54
2021/12/01 11:46:07;;;;;;;9.53;5.70;;;;;;;8.23;77.68;97040.19;5011351;28;20188;-55
2021/12/01 11:48:37;;;;;;;1.93;1.30;;;;;;;8.19;77.27;97038.94;5010882;28;20199;-52
2021/12/01 11:51:21;;;;;;;9.70;6.27;;;;;;;8.25;75.58;97026.03;5009413;28;20219;-56
2021/12/01 11:53:54;;;;;;;1.03;0.70;;;;;;;8.21;77.12;97016.97;4993830;28;20719;-51